Time;durP1;ratioP1;P1;durP2;ratioP2;P2;SDS_P1;SDS_P2;PMS_P1;PMS_P2;Temp;Humidity;BMP_temperature;BMP_pressure;BME280_temperature;BME280_humidity;BME280_pressure;Samples;Min_cycle;Max_cycle;Signal;HPM_P1;HPM_P2
2023/01/15 00:01:58;;;;;;;33.03;16.97;;;;;;;3.98;100.00;95042.97;5026201;28;20566;-81
2023/01/15 00:04:25;;;;;;;30.83;16.47;;;;;;;3.97;100.00;95051.66;5026777;28;20234;-82
2023/01/15 00:06:53;;;;;;;34.50;18.23;;;;;;;3.75;100.00;95047.22;5027910;28;20203;-79
2023/01/15 00:09:20;;;;;;;31.87;17.27;;;;;;;3.70;100.00;95051.28;5022888;28;20628;-78
2023/01/15 00:11:50;;;;;;;41.03;17.70;;;;;;;3.69;100.00;95042.78;5026062;28;20191;-81
2023/01/15 00:14:17;;;;;;;36.20;18.57;;;;;;;3.86;100.00;95052.03;5029227;28;20195;-80
2023/01/15 00:16:44;;;;;;;34.63;18.37;;;;;;;3.90;100.00;95044.75;5027144;28;20224;-82
2023/01/15 00:19:12;;;;;;;35.23;18.10;;;;;;;3.98;100.00;95052.47;5026897;28;20199;-80
2023/01/15 00:21:39;;;;;;;34.40;18.60;;;;;;;4.06;100.00;95049.84;5028881;28;20206;-81
2023/01/15 00:29:34;;;;;;;34.50;17.63;;;;;;;4.11;100.00;95039.84;5027581;28;20276;-81
2023/01/15 00:32:04;;;;;;;35.40;18.03;;;;;;;4.14;100.00;95054.16;5027661;28;20213;-81
2023/01/15 00:34:33;;;;;;;29.57;15.97;;;;;;;4.03;100.00;95050.19;5027077;28;20214;-85
2023/01/15 00:37:00;;;;;;;30.30;16.73;;;;;;;3.83;100.00;95049.00;5026581;28;20199;-87
2023/01/15 00:39:27;;;;;;;30.40;16.87;;;;;;;3.74;100.00;95043.09;5027380;28;20199;-84
2023/01/15 00:41:55;;;;;;;36.10;17.17;;;;;;;3.73;100.00;95040.66;5025653;28;20194;-85
2023/01/15 00:44:23;;;;;;;30.90;16.37;;;;;;;3.75;100.00;95031.81;5030418;28;20210;-87
2023/01/15 00:46:49;;;;;;;29.67;15.60;;;;;;;3.76;100.00;95036.00;5028712;28;20203;-83
2023/01/15 00:49:16;;;;;;;30.60;15.57;;;;;;;3.67;100.00;95029.28;5026562;28;20210;-80
2023/01/15 00:51:44;;;;;;;26.83;14.87;;;;;;;3.71;100.00;95029.75;5027266;28;20199;-82
2023/01/15 00:54:11;;;;;;;25.17;14.07;;;;;;;3.67;100.00;95031.03;5028444;28;20198;-81
2023/01/15 00:56:38;;;;;;;30.07;15.87;;;;;;;3.83;100.00;95029.22;5023005;28;20198;-81
2023/01/15 00:59:06;;;;;;;29.17;15.97;;;;;;;3.94;100.00;95041.72;5026190;28;20199;-79
2023/01/15 01:01:34;;;;;;;27.23;15.17;;;;;;;3.92;100.00;95028.22;5027090;28;20203;-78
2023/01/15 01:04:01;;;;;;;31.23;16.23;;;;;;;4.00;100.00;95037.66;5024123;28;20209;-78
2023/01/15 01:06:28;;;;;;;32.43;16.83;;;;;;;4.07;100.00;95041.16;5024490;28;20196;-80
2023/01/15 01:08:56;;;;;;;29.83;16.37;;;;;;;4.13;100.00;95042.28;5026007;28;20223;-80
2023/01/15 01:11:31;;;;;;;28.43;16.07;;;;;;;4.19;100.00;95037.22;5024756;28;20690;-80
2023/01/15 01:14:07;;;;;;;26.73;14.60;;;;;;;3.97;100.00;94984.81;5028120;28;20299;-81
2023/01/15 01:16:36;;;;;;;31.97;15.97;;;;;;;4.24;100.00;95022.09;5031839;28;20658;-79
2023/01/15 01:19:07;;;;;;;29.30;16.10;;;;;;;4.30;100.00;95026.56;5029881;28;20223;-80
2023/01/15 01:21:35;;;;;;;31.10;17.60;;;;;;;4.34;100.00;95034.75;5030673;28;20247;-80
2023/01/15 01:24:04;;;;;;;29.40;16.80;;;;;;;4.27;100.00;95026.91;5030947;28;20211;-81
2023/01/15 01:26:31;;;;;;;30.67;17.00;;;;;;;4.22;100.00;95029.19;5029965;28;20310;-81
2023/01/15 01:28:58;;;;;;;32.57;16.73;;;;;;;4.06;100.00;95024.13;5028901;28;20225;-80
2023/01/15 01:31:25;;;;;;;30.83;16.43;;;;;;;4.12;100.00;95025.22;5031943;28;20203;-80
2023/01/15 01:33:54;;;;;;;29.33;15.97;;;;;;;4.19;100.00;95018.44;5029614;28;20195;-82
2023/01/15 01:36:25;;;;;;;41.20;20.90;;;;;;;4.29;100.00;95027.53;5030657;28;20195;-82
2023/01/15 01:38:52;;;;;;;42.10;23.33;;;;;;;4.36;100.00;95025.06;5032907;28;20195;-83
2023/01/15 01:41:21;;;;;;;38.73;20.07;;;;;;;4.45;100.00;95035.16;5030275;28;20195;-82
2023/01/15 01:43:57;;;;;;;37.03;18.20;;;;;;;4.45;100.00;95029.19;5029738;28;20203;-81
2023/01/15 01:46:25;;;;;;;34.63;18.27;;;;;;;4.22;100.00;95028.38;5030721;28;20210;-81
2023/01/15 01:48:55;;;;;;;39.83;18.90;;;;;;;3.98;100.00;95026.75;5030380;28;20745;-82
2023/01/15 01:51:24;;;;;;;34.43;17.20;;;;;;;3.95;100.00;95027.09;5030554;28;20221;-83
2023/01/15 01:53:52;;;;;;;32.67;17.87;;;;;;;4.05;100.00;95040.53;5033100;28;20853;-82
2023/01/15 01:56:20;;;;;;;31.43;17.07;;;;;;;3.91;100.00;95034.34;5029075;28;20195;-80
2023/01/15 01:58:52;;;;;;;29.73;16.03;;;;;;;3.82;100.00;95027.63;5026526;28;20187;-79
2023/01/15 02:01:20;;;;;;;32.90;17.80;;;;;;;3.76;100.00;95030.06;5027724;28;20215;-80
2023/01/15 02:03:47;;;;;;;33.73;17.60;;;;;;;3.63;100.00;95032.34;5029765;28;20194;-80
2023/01/15 02:06:15;;;;;;;33.77;17.10;;;;;;;3.48;100.00;95016.03;5028639;28;20195;-80
2023/01/15 02:08:42;;;;;;;31.50;17.63;;;;;;;3.55;100.00;95028.03;5026632;28;20226;-83
2023/01/15 02:11:16;;;;;;;35.40;17.80;;;;;;;3.57;100.00;95020.19;5031586;28;20199;-82
2023/01/15 02:13:50;;;;;;;34.20;17.70;;;;;;;3.58;100.00;95021.78;5028586;28;20195;-80
2023/01/15 02:16:23;;;;;;;36.00;17.43;;;;;;;3.62;100.00;95026.41;5029013;28;20197;-78
2023/01/15 02:18:58;;;;;;;33.57;17.20;;;;;;;3.61;100.00;95018.88;5031101;28;20566;-81
2023/01/15 02:21:40;;;;;;;35.30;17.37;;;;;;;3.59;100.00;95007.94;5029919;28;20214;-82
2023/01/15 02:24:11;;;;;;;34.30;17.90;;;;;;;3.73;100.00;95020.91;5028267;28;20203;-82
2023/01/15 02:27:10;;;;;;;31.33;17.17;;;;;;;3.65;100.00;95010.66;5030551;28;20187;-81
2023/01/15 02:29:54;;;;;;;32.00;17.40;;;;;;;3.62;100.00;95018.72;5033671;28;20210;-82
2023/01/15 02:32:29;;;;;;;35.57;18.27;;;;;;;3.59;100.00;95015.66;5028189;28;20192;-82
2023/01/15 02:35:04;;;;;;;34.37;18.07;;;;;;;3.55;100.00;95006.69;5029534;28;20202;-82
2023/01/15 02:37:35;;;;;;;38.67;19.37;;;;;;;3.58;100.00;95006.38;5031223;28;20187;-82
2023/01/15 02:40:05;;;;;;;35.57;18.50;;;;;;;3.55;100.00;95004.13;5029389;28;20199;-84
2023/01/15 02:42:35;;;;;;;36.97;19.07;;;;;;;3.60;100.00;94994.97;5028929;28;20248;-84
2023/01/15 02:45:06;;;;;;;37.47;18.90;;;;;;;3.58;100.00;95004.56;5029860;28;20211;-83
2023/01/15 02:47:36;;;;;;;37.00;18.53;;;;;;;3.59;100.00;95001.06;5031100;28;20219;-84
2023/01/15 02:50:07;;;;;;;34.07;18.20;;;;;;;3.69;100.00;94990.59;5029614;28;20226;-84
2023/01/15 02:52:39;;;;;;;39.77;18.57;;;;;;;3.83;100.00;95007.88;5030009;28;20893;-83
2023/01/15 02:55:11;;;;;;;32.43;17.90;;;;;;;3.81;100.00;94999.53;5030608;28;20650;-83
2023/01/15 02:57:39;;;;;;;30.90;16.97;;;;;;;3.79;100.00;95002.25;5029498;28;20703;-84
2023/01/15 03:00:12;;;;;;;33.97;17.80;;;;;;;3.93;100.00;95006.69;5029881;28;20199;-84
2023/01/15 03:02:45;;;;;;;30.37;16.53;;;;;;;4.01;100.00;95000.72;5027836;28;20195;-81
2023/01/15 03:05:17;;;;;;;35.63;18.33;;;;;;;4.04;100.00;95004.72;5027783;28;20254;-80
2023/01/15 03:07:48;;;;;;;34.57;17.80;;;;;;;4.16;100.00;95006.72;5026492;28;20199;-79
2023/01/15 03:10:15;;;;;;;31.20;16.83;;;;;;;4.12;100.00;95000.31;5028942;28;20211;-78
2023/01/15 03:18:36;;;;;;;32.50;16.83;;;;;;;3.82;100.00;94972.84;5025482;28;20970;-79
2023/01/15 03:21:08;;;;;;;32.23;16.40;;;;;;;3.92;100.00;94989.66;5027438;28;20674;-82
2023/01/15 03:23:37;;;;;;;27.27;15.00;;;;;;;3.83;100.00;94993.25;5028572;28;20886;-83
2023/01/15 03:26:04;;;;;;;32.80;16.47;;;;;;;3.84;100.00;94994.84;5028113;28;20642;-85
2023/01/15 03:28:35;;;;;;;28.50;14.67;;;;;;;3.91;100.00;95000.09;5029702;28;20211;-84
2023/01/15 03:31:04;;;;;;;28.13;15.23;;;;;;;4.04;100.00;95004.72;5028609;28;20214;-85
2023/01/15 03:33:31;;;;;;;32.07;15.60;;;;;;;4.01;100.00;94988.63;5028546;28;20199;-83
2023/01/15 03:35:59;;;;;;;29.20;15.47;;;;;;;4.21;100.00;94999.31;5029397;28;20203;-83
2023/01/15 03:38:29;;;;;;;27.67;14.83;;;;;;;4.34;100.00;95004.69;5028165;28;20666;-82
2023/01/15 03:41:07;;;;;;;28.73;14.93;;;;;;;4.42;100.00;95004.63;5029664;28;20980;-82
2023/01/15 03:43:45;;;;;;;29.10;15.33;;;;;;;4.50;100.00;95009.69;5030080;28;20203;-83
2023/01/15 03:46:26;;;;;;;30.77;14.57;;;;;;;4.46;100.00;95005.09;5028724;28;20202;-82
2023/01/15 03:49:01;;;;;;;38.57;15.20;;;;;;;4.47;100.00;95004.13;5026307;28;20588;-83
2023/01/15 03:51:37;;;;;;;27.07;14.60;;;;;;;4.49;100.00;95004.75;5028449;28;20734;-80
2023/01/15 03:54:11;;;;;;;24.80;13.80;;;;;;;4.53;100.00;95011.94;5028521;28;20185;-79
2023/01/15 03:56:47;;;;;;;23.97;13.70;;;;;;;4.60;100.00;95017.19;5027580;28;20203;-81
2023/01/15 03:59:18;;;;;;;26.50;14.60;;;;;;;4.45;100.00;94983.69;5027901;28;20940;-81
2023/01/15 04:01:49;;;;;;;24.93;13.20;;;;;;;4.71;100.00;95013.41;5030043;28;20194;-80
2023/01/15 04:04:16;;;;;;;24.77;13.40;;;;;;;4.65;100.00;94996.88;5026454;28;20242;-79
2023/01/15 04:06:44;;;;;;;24.17;13.47;;;;;;;4.71;100.00;95009.06;5026013;28;20199;-80
2023/01/15 04:09:14;;;;;;;25.43;14.00;;;;;;;4.69;100.00;95010.22;5028177;28;20199;-79
2023/01/15 04:11:40;;;;;;;20.90;12.30;;;;;;;4.74;100.00;95006.16;5026663;28;20286;-79
2023/01/15 04:14:08;;;;;;;24.07;12.57;;;;;;;4.70;100.00;95015.22;5026789;28;20198;-79
2023/01/15 04:16:34;;;;;;;21.87;11.70;;;;;;;4.71;100.00;95008.25;5028219;28;20569;-81
2023/01/15 04:19:03;;;;;;;20.90;11.07;;;;;;;4.65;100.00;95003.81;5028960;28;20214;-80
2023/01/15 04:21:29;;;;;;;18.27;9.77;;;;;;;4.66;100.00;95011.38;5026693;28;20884;-80
2023/01/15 04:23:56;;;;;;;20.43;11.07;;;;;;;4.66;100.00;95006.22;5028591;28;20199;-81
2023/01/15 04:26:23;;;;;;;20.80;11.33;;;;;;;4.66;100.00;95013.94;5025835;28;20199;-79
2023/01/15 04:28:50;;;;;;;22.37;12.50;;;;;;;4.56;100.00;95003.88;5026000;28;20203;-79
2023/01/15 04:31:17;;;;;;;22.43;12.87;;;;;;;4.62;100.00;94999.03;5027279;28;20222;-78
2023/01/15 04:33:44;;;;;;;23.03;12.40;;;;;;;4.73;100.00;95021.78;5026027;28;20197;-79
2023/01/15 04:36:13;;;;;;;21.57;12.53;;;;;;;4.81;100.00;95011.41;5026294;28;20215;-81
2023/01/15 04:38:40;;;;;;;24.13;12.20;;;;;;;4.61;100.00;95018.00;5028655;28;20231;-81
2023/01/15 04:44:06;;;;;;;22.60;12.07;;;;;;;4.28;100.00;95007.13;5025826;28;20273;-82
2023/01/15 04:46:34;;;;;;;28.27;16.07;;;;;;;4.31;100.00;95007.59;5009940;28;20206;-82
2023/01/15 04:49:04;;;;;;;24.53;13.87;;;;;;;4.22;100.00;95003.47;5033282;28;20600;-81
2023/01/15 04:51:32;;;;;;;25.33;13.70;;;;;;;4.17;100.00;95012.66;5032878;28;20199;-81
2023/01/15 04:54:02;;;;;;;26.50;14.73;;;;;;;4.27;100.00;95011.47;5031410;28;20736;-81
2023/01/15 04:56:29;;;;;;;29.00;15.10;;;;;;;4.28;100.00;95020.78;5032734;28;20216;-83
2023/01/15 04:58:56;;;;;;;26.70;14.77;;;;;;;4.28;100.00;95019.97;5031732;28;20206;-82
2023/01/15 05:01:23;;;;;;;19.73;11.60;;;;;;;4.27;100.00;95011.47;5031110;28;20211;-81
2023/01/15 05:03:49;;;;;;;20.13;11.83;;;;;;;4.26;100.00;95009.06;5032318;28;20203;-81
2023/01/15 05:06:17;;;;;;;20.07;11.53;;;;;;;4.26;100.00;95006.50;5032116;28;20203;-82
2023/01/15 05:08:45;;;;;;;29.60;15.13;;;;;;;4.32;100.00;95016.91;5032849;28;20249;-87
2023/01/15 05:11:12;;;;;;;30.17;16.03;;;;;;;4.38;100.00;95016.25;5033210;28;20215;-86
2023/01/15 05:13:42;;;;;;;32.17;16.10;;;;;;;4.41;100.00;95018.47;5030630;28;20253;-88
2023/01/15 05:16:14;;;;;;;28.20;15.33;;;;;;;4.34;100.00;95014.97;5031295;28;20206;-84
2023/01/15 05:18:41;;;;;;;28.20;14.97;;;;;;;4.42;100.00;95020.06;5032703;28;20193;-83
2023/01/15 05:21:14;;;;;;;31.83;15.60;;;;;;;4.13;100.00;94990.84;5030796;28;20213;-83
2023/01/15 05:23:40;;;;;;;30.60;16.07;;;;;;;4.26;100.00;95019.38;5028080;28;20192;-83
2023/01/15 05:26:09;;;;;;;30.57;16.30;;;;;;;4.13;100.00;95001.13;5033556;28;20200;-86
2023/01/15 05:28:35;;;;;;;31.33;16.03;;;;;;;4.27;100.00;95014.03;5031140;28;20231;-86
2023/01/15 05:31:07;;;;;;;37.83;17.93;;;;;;;4.13;100.00;94999.34;5030872;28;20227;-85
2023/01/15 05:33:34;;;;;;;34.30;18.93;;;;;;;4.24;100.00;95014.38;5032364;28;20280;-84
2023/01/15 05:36:02;;;;;;;36.03;18.30;;;;;;;4.04;100.00;95008.06;5030409;28;20574;-84
2023/01/15 05:38:29;;;;;;;37.93;21.30;;;;;;;4.09;100.00;95021.22;5030616;28;20943;-82
2023/01/15 05:40:56;;;;;;;37.23;19.07;;;;;;;4.00;100.00;95023.03;5032214;28;20199;-84
2023/01/15 05:43:24;;;;;;;58.33;27.93;;;;;;;4.04;100.00;95017.56;5030357;28;20204;-82
2023/01/15 05:45:51;;;;;;;110.20;50.13;;;;;;;3.94;100.00;95002.34;5032790;28;20675;-82
2023/01/15 05:48:18;;;;;;;116.33;56.80;;;;;;;4.09;100.00;95028.94;5031624;28;20195;-84
2023/01/15 05:50:45;;;;;;;107.13;52.87;;;;;;;4.06;100.00;95031.84;5030387;28;20212;-83
2023/01/15 05:53:12;;;;;;;105.83;52.53;;;;;;;3.99;100.00;95024.00;5030081;28;20199;-83
2023/01/15 05:55:39;;;;;;;100.10;53.23;;;;;;;3.92;100.00;95032.56;5033773;28;20199;-87
2023/01/15 05:58:06;;;;;;;104.53;54.00;;;;;;;3.97;100.00;95027.72;5031632;28;20213;-87
2023/01/15 06:00:34;;;;;;;102.63;52.30;;;;;;;3.94;100.00;95028.84;5032998;28;20202;-87
2023/01/15 06:03:01;;;;;;;115.37;58.03;;;;;;;3.96;100.00;95036.38;5030729;28;20209;-85
2023/01/15 06:05:28;;;;;;;113.87;57.57;;;;;;;4.01;100.00;95034.13;5032222;28;20787;-86
2023/01/15 06:07:54;;;;;;;131.47;60.50;;;;;;;4.01;100.00;95037.47;5030102;28;20623;-81
2023/01/15 06:10:21;;;;;;;120.00;60.37;;;;;;;3.95;100.00;95040.72;5028794;28;20219;-76
2023/01/15 06:12:48;;;;;;;128.13;60.90;;;;;;;3.84;100.00;95025.69;5027772;28;20195;-76
2023/01/15 06:15:15;;;;;;;124.00;57.63;;;;;;;3.92;100.00;95035.94;5026157;28;20614;-76
2023/01/15 06:17:43;;;;;;;123.87;59.90;;;;;;;3.94;100.00;95038.34;5026696;28;20199;-75
2023/01/15 06:20:11;;;;;;;114.93;57.70;;;;;;;3.98;100.00;95032.69;5027528;28;20447;-76
2023/01/15 06:22:38;;;;;;;129.77;64.50;;;;;;;4.08;100.00;95026.53;5027828;28;20758;-77
2023/01/15 06:25:06;;;;;;;112.50;58.63;;;;;;;4.05;100.00;95032.00;5028715;28;20218;-76
2023/01/15 06:27:33;;;;;;;135.40;67.67;;;;;;;4.07;100.00;95018.00;5027829;28;20207;-77
2023/01/15 06:30:00;;;;;;;154.37;75.50;;;;;;;4.09;100.00;95026.38;5026211;28;20232;-77
2023/01/15 06:32:26;;;;;;;116.90;58.53;;;;;;;4.10;100.00;95020.25;5027587;28;20207;-77
2023/01/15 06:34:55;;;;;;;90.30;46.07;;;;;;;4.10;100.00;95019.47;5027196;28;20246;-77
2023/01/15 06:37:21;;;;;;;65.27;32.50;;;;;;;4.06;100.00;95029.28;5025187;28;20198;-75
2023/01/15 06:39:48;;;;;;;66.33;35.37;;;;;;;4.00;100.00;95030.75;5027537;28;20194;-76
2023/01/15 06:47:44;;;;;;;59.43;29.13;;;;;;;3.71;100.00;95027.19;5023909;28;20283;-75
2023/01/15 06:50:13;;;;;;;61.97;28.27;;;;;;;3.66;100.00;95029.47;5028188;28;20325;-76
2023/01/15 06:52:40;;;;;;;53.73;27.60;;;;;;;3.68;100.00;95025.75;5026225;28;20197;-75
2023/01/15 06:55:07;;;;;;;58.10;28.70;;;;;;;3.74;100.00;95030.22;5026566;28;20210;-77
2023/01/15 06:57:34;;;;;;;59.10;27.87;;;;;;;3.79;100.00;95029.72;5028760;28;20198;-79
2023/01/15 07:00:01;;;;;;;56.97;27.87;;;;;;;3.74;100.00;95029.44;5025805;28;20198;-77
2023/01/15 07:02:28;;;;;;;55.73;27.37;;;;;;;3.77;100.00;95027.31;5026385;28;20195;-78
2023/01/15 07:04:54;;;;;;;59.13;27.17;;;;;;;3.81;100.00;95028.56;5028346;28;20228;-75
2023/01/15 07:07:23;;;;;;;57.63;27.30;;;;;;;3.83;100.00;95025.84;5025492;28;20196;-76
2023/01/15 07:09:50;;;;;;;53.50;26.63;;;;;;;3.80;100.00;95032.13;5025511;28;20203;-76
2023/01/15 07:12:18;;;;;;;53.30;27.37;;;;;;;3.77;100.00;95029.91;5026824;28;20203;-73
2023/01/15 07:14:45;;;;;;;50.23;26.20;;;;;;;3.81;100.00;95025.22;5023289;28;20285;-75
2023/01/15 07:17:11;;;;;;;50.83;25.93;;;;;;;3.79;100.00;95032.28;5024568;28;20191;-75
2023/01/15 07:19:38;;;;;;;57.27;27.03;;;;;;;3.82;100.00;95025.06;5027078;28;20204;-74
2023/01/15 07:22:05;;;;;;;58.83;25.53;;;;;;;3.94;100.00;95040.91;5024630;28;20214;-75
2023/01/15 07:24:34;;;;;;;54.63;25.93;;;;;;;3.90;100.00;95040.44;5023815;28;20206;-76
2023/01/15 07:27:01;;;;;;;54.37;25.30;;;;;;;3.96;100.00;95044.09;5025711;28;20572;-76
2023/01/15 07:29:28;;;;;;;49.90;25.60;;;;;;;4.04;100.00;95043.28;5024913;28;20222;-77
2023/01/15 07:31:56;;;;;;;48.00;25.30;;;;;;;4.09;100.00;95038.44;5024135;28;20632;-78
2023/01/15 07:34:23;;;;;;;51.33;25.47;;;;;;;4.14;100.00;95038.72;5026215;28;20298;-77
2023/01/15 07:36:49;;;;;;;48.73;24.77;;;;;;;4.23;100.00;95043.66;5024937;28;20210;-78
2023/01/15 07:39:16;;;;;;;45.43;24.17;;;;;;;4.33;100.00;95051.94;5025036;28;20207;-77
2023/01/15 07:50:03;;;;;;;47.60;23.30;;;;;;;4.60;100.00;95045.50;5024726;28;20220;-77
2023/01/15 07:52:30;;;;;;;49.83;22.20;;;;;;;4.62;100.00;95042.78;5027501;28;20217;-78
2023/01/15 07:54:57;;;;;;;44.90;22.17;;;;;;;4.66;100.00;95038.88;5024829;28;20199;-78
2023/01/15 07:57:25;;;;;;;54.47;28.53;;;;;;;4.69;100.00;95041.91;5024704;28;20326;-77
2023/01/15 07:59:52;;;;;;;55.57;25.97;;;;;;;4.71;100.00;95037.38;5026836;28;20204;-78
2023/01/15 08:02:19;;;;;;;54.03;29.37;;;;;;;4.72;100.00;95035.59;5024475;28;20289;-77
2023/01/15 08:04:46;;;;;;;54.47;29.67;;;;;;;4.58;100.00;95016.56;5025094;28;20249;-77
2023/01/15 08:07:14;;;;;;;61.23;32.70;;;;;;;4.68;100.00;95030.00;5027104;28;20196;-76
2023/01/15 08:09:41;;;;;;;62.30;32.77;;;;;;;4.62;100.00;95015.25;5022411;28;20205;-76
2023/01/15 08:15:13;;;;;;;37.30;18.20;;;;;;;4.80;100.00;95038.94;5025920;28;20187;-75
2023/01/15 08:17:41;;;;;;;30.40;16.93;;;;;;;4.82;100.00;95047.25;5026062;28;20200;-76
2023/01/15 08:20:10;;;;;;;26.73;15.47;;;;;;;4.82;100.00;95028.47;5023641;28;20212;-76
2023/01/15 08:22:38;;;;;;;26.87;14.00;;;;;;;5.02;100.00;95053.53;5024994;28;20196;-75
2023/01/15 08:25:06;;;;;;;21.70;12.27;;;;;;;5.17;98.30;95043.28;5026499;28;20204;-76
2023/01/15 08:27:33;;;;;;;21.80;12.60;;;;;;;5.18;98.07;95055.19;5023696;28;20255;-75
2023/01/15 08:30:01;;;;;;;22.17;12.53;;;;;;;5.21;97.81;95054.03;5024879;28;20209;-75
2023/01/15 08:32:28;;;;;;;22.70;12.77;;;;;;;5.29;97.85;95059.09;5025624;28;20226;-75
2023/01/15 08:34:55;;;;;;;25.87;13.40;;;;;;;5.33;97.49;95060.38;5023439;28;20201;-75
2023/01/15 08:37:22;;;;;;;24.97;14.07;;;;;;;5.38;97.78;95063.22;5023597;28;20207;-76
2023/01/15 08:39:49;;;;;;;26.40;14.30;;;;;;;5.49;96.63;95052.47;5026062;28;21032;-74
2023/01/15 08:42:16;;;;;;;24.63;14.27;;;;;;;5.59;96.84;95051.25;5024188;28;20197;-75
2023/01/15 08:44:43;;;;;;;26.80;13.73;;;;;;;5.63;95.80;95056.81;5021971;28;20213;-74
2023/01/15 08:47:11;;;;;;;24.53;14.20;;;;;;;5.58;93.97;95053.97;5026265;28;20194;-78
2023/01/15 08:49:38;;;;;;;24.27;14.03;;;;;;;5.59;96.18;95053.03;5025376;28;20193;-77
2023/01/15 08:52:05;;;;;;;24.00;13.50;;;;;;;5.73;94.27;95047.88;5024403;28;20215;-77
2023/01/15 08:54:32;;;;;;;26.53;13.77;;;;;;;5.92;94.46;95049.13;5025741;28;20212;-76
2023/01/15 08:57:00;;;;;;;24.37;14.27;;;;;;;6.10;93.56;95048.75;5024610;28;20198;-78
2023/01/15 08:59:27;;;;;;;26.13;13.93;;;;;;;6.24;93.29;95045.31;5024534;28;20657;-78
2023/01/15 09:01:53;;;;;;;27.00;14.73;;;;;;;6.35;92.44;95049.25;5026386;28;20571;-78
2023/01/15 09:04:22;;;;;;;25.70;14.60;;;;;;;6.50;91.20;95045.63;5020224;28;20237;-77
2023/01/15 09:06:49;;;;;;;28.47;16.77;;;;;;;6.69;90.63;95049.41;5020120;28;20202;-77
2023/01/15 09:09:17;;;;;;;29.90;17.20;;;;;;;6.77;90.02;95046.69;5025916;28;20206;-77
2023/01/15 09:11:44;;;;;;;33.13;17.43;;;;;;;6.59;90.34;95041.94;5023141;28;20218;-77
2023/01/15 09:14:13;;;;;;;32.90;17.53;;;;;;;6.78;90.14;95041.31;5024094;28;20213;-78
2023/01/15 09:16:40;;;;;;;29.47;16.33;;;;;;;6.91;88.65;95037.25;5026131;28;20191;-77
2023/01/15 09:19:07;;;;;;;30.13;16.80;;;;;;;6.89;89.69;95021.16;5023931;28;20234;-79
2023/01/15 09:21:36;;;;;;;29.30;16.23;;;;;;;7.05;88.94;95039.78;5024072;28;20203;-78
2023/01/15 09:24:03;;;;;;;35.77;16.77;;;;;;;7.14;88.44;95036.06;5025969;28;20195;-78
2023/01/15 09:26:31;;;;;;;28.03;16.03;;;;;;;7.23;88.19;95034.94;5024185;28;20199;-77
2023/01/15 09:28:58;;;;;;;29.57;16.33;;;;;;;7.27;87.27;95027.63;5024331;28;20214;-77
2023/01/15 09:31:26;;;;;;;27.67;16.30;;;;;;;7.29;87.22;95035.97;5025941;28;20225;-78
2023/01/15 09:33:53;;;;;;;29.77;16.67;;;;;;;7.33;87.23;95024.28;5025528;28;20568;-77
2023/01/15 09:36:24;;;;;;;30.40;15.90;;;;;;;7.38;86.83;95021.94;5027276;28;20207;-77
2023/01/15 09:38:52;;;;;;;28.77;15.23;;;;;;;7.41;85.95;95013.81;5029412;28;20187;-75
2023/01/15 09:44:21;;;;;;;24.77;14.30;;;;;;;7.21;86.08;95012.88;5027910;28;20182;-79
2023/01/15 09:47:03;;;;;;;25.83;15.10;;;;;;;7.29;85.84;95005.78;5031199;28;20693;-85
2023/01/15 09:49:40;;;;;;;26.83;13.63;;;;;;;7.16;86.15;95008.25;5032243;28;20201;-84
2023/01/15 09:52:13;;;;;;;23.53;14.27;;;;;;;7.10;86.84;95003.81;5031684;28;20662;-78
2023/01/15 09:54:56;;;;;;;26.10;13.87;;;;;;;7.18;87.31;94995.16;5027969;28;20206;-75
2023/01/15 09:57:26;;;;;;;22.60;12.67;;;;;;;7.09;87.94;94979.00;5028162;28;20615;-80
2023/01/15 09:59:59;;;;;;;22.33;13.17;;;;;;;7.30;86.39;94984.09;5028411;28;20658;-79
2023/01/15 10:02:31;;;;;;;22.10;13.27;;;;;;;7.39;87.00;94976.97;5028212;28;20191;-80
2023/01/15 10:05:02;;;;;;;24.77;13.33;;;;;;;7.35;87.13;94971.41;5029681;28;20254;-79
2023/01/15 10:07:36;;;;;;;28.10;14.60;;;;;;;7.38;86.79;94968.44;5028185;28;20202;-79
2023/01/15 10:10:10;;;;;;;26.47;14.40;;;;;;;7.45;86.92;94960.72;5028067;28;20189;-80
2023/01/15 10:12:38;;;;;;;26.40;15.73;;;;;;;7.51;87.11;94962.53;5027161;28;20203;-80
2023/01/15 10:15:32;;;;;;;26.27;14.97;;;;;;;7.50;85.27;94967.91;5029174;28;20609;-80
2023/01/15 10:18:00;;;;;;;27.93;16.73;;;;;;;7.34;86.06;94953.50;5026239;28;20205;-79
2023/01/15 10:20:49;;;;;;;30.03;16.03;;;;;;;7.33;87.12;94954.50;5027159;28;20214;-79
2023/01/15 10:23:35;;;;;;;29.77;16.57;;;;;;;7.38;87.21;94945.19;5029798;28;20222;-80
2023/01/15 10:26:15;;;;;;;34.67;18.57;;;;;;;7.31;87.84;94938.34;5028680;28;20293;-80
2023/01/15 10:28:55;;;;;;;37.30;19.53;;;;;;;7.14;88.43;94934.47;5026683;28;20183;-79
2023/01/15 10:31:31;;;;;;;35.63;19.43;;;;;;;7.14;89.02;94935.28;5027013;28;20302;-80
2023/01/15 10:34:20;;;;;;;37.23;19.33;;;;;;;7.25;89.00;94931.38;5028886;28;20198;-80
2023/01/15 10:36:57;;;;;;;36.57;19.63;;;;;;;7.21;89.09;94917.25;5025058;28;20206;-80
2023/01/15 10:39:30;;;;;;;37.53;18.60;;;;;;;7.30;92.49;94916.09;5039031;28;20204;-86
2023/01/15 10:42:13;;;;;;;34.63;18.83;;;;;;;7.49;89.98;94906.81;5031208;28;20190;-88
2023/01/15 10:44:48;;;;;;;34.17;18.33;;;;;;;7.68;86.89;94909.50;5026863;28;20214;-83
2023/01/15 10:47:22;;;;;;;36.67;18.13;;;;;;;7.82;86.93;94905.19;5028915;28;20198;-87
2023/01/15 10:49:50;;;;;;;33.17;17.70;;;;;;;8.17;87.54;94892.88;5030193;28;20183;-86
2023/01/15 10:52:27;;;;;;;32.60;17.57;;;;;;;9.20;83.79;94900.09;5030392;28;20313;-87
2023/01/15 10:54:57;;;;;;;29.20;16.20;;;;;;;10.09;81.40;94893.94;5030068;28;20285;-86
2023/01/15 10:57:36;;;;;;;25.90;15.27;;;;;;;10.55;76.75;94893.66;5027872;28;20202;-87
2023/01/15 11:00:06;;;;;;;28.73;16.67;;;;;;;10.50;75.90;94887.50;5032164;28;20194;-88
2023/01/15 11:02:37;;;;;;;28.33;14.77;;;;;;;10.64;75.10;94891.59;5032407;28;20743;-86
2023/01/15 11:05:05;;;;;;;25.33;14.30;;;;;;;10.94;75.75;94884.72;5030198;28;20227;-80
2023/01/15 11:07:37;;;;;;;23.83;13.93;;;;;;;11.53;75.54;94862.50;5028350;28;20230;-87
2023/01/15 11:10:10;;;;;;;18.10;12.10;;;;;;;12.21;72.20;94848.19;5027608;28;20966;-81
2023/01/15 11:21:01;;;;;;;18.70;12.20;;;;;;;14.91;60.35;94883.75;5025439;28;20185;-79
2023/01/15 11:23:28;;;;;;;21.40;12.90;;;;;;;14.92;61.27;94880.09;5024799;28;20272;-79
2023/01/15 11:25:57;;;;;;;21.07;12.73;;;;;;;15.19;60.19;94877.63;5026005;28;20665;-87
2023/01/15 11:28:35;;;;;;;21.73;13.13;;;;;;;15.83;59.02;94884.78;5029268;28;20214;-88
2023/01/15 11:31:02;;;;;;;20.07;12.80;;;;;;;16.61;56.47;94873.03;5027354;28;20735;-87
2023/01/15 11:33:30;;;;;;;20.07;12.53;;;;;;;16.97;55.10;94872.25;5025745;28;20221;-87
2023/01/15 11:36:00;;;;;;;18.57;12.67;;;;;;;17.09;53.26;94851.06;5025093;28;20203;-79
2023/01/15 11:38:28;;;;;;;20.43;13.27;;;;;;;17.53;52.68;94851.56;5023463;28;20202;-79
2023/01/15 11:40:58;;;;;;;19.60;13.07;;;;;;;18.37;48.87;94861.88;5023588;28;20222;-78
2023/01/15 11:52:03;;;;;;;22.47;12.60;;;;;;;17.73;47.69;94843.81;5027482;28;21629;-87
2023/01/15 11:54:31;;;;;;;18.37;12.23;;;;;;;17.91;48.04;94845.19;5028728;28;20229;-79
2023/01/15 11:56:58;;;;;;;25.90;13.37;;;;;;;17.90;47.88;94846.22;5023948;28;20245;-81
2023/01/15 11:59:26;;;;;;;21.50;12.50;;;;;;;18.20;47.07;94848.16;5023701;28;20206;-77
2023/01/15 12:01:59;;;;;;;22.27;12.77;;;;;;;18.50;47.07;94835.84;5027522;28;20198;-80
2023/01/15 12:04:32;;;;;;;18.03;13.10;;;;;;;18.63;46.12;94839.81;5025039;28;20596;-77
2023/01/15 12:07:00;;;;;;;18.17;13.07;;;;;;;18.49;46.77;94836.13;5027567;28;20203;-82
2023/01/15 12:09:39;;;;;;;19.37;12.43;;;;;;;18.67;44.94;94836.38;5026906;28;20898;-83
2023/01/15 12:12:18;;;;;;;19.23;12.43;;;;;;;18.85;45.32;94840.34;5026621;28;20221;-77
2023/01/15 12:15:03;;;;;;;17.02;11.88;;;;;;;19.03;45.05;94821.34;5022914;28;20629;-83
2023/01/15 12:17:56;;;;;;;18.10;11.90;;;;;;;19.54;43.52;94834.44;5026952;28;20264;-78
2023/01/15 12:20:29;;;;;;;19.08;12.20;;;;;;;19.90;42.55;94827.19;5023276;28;20581;-79
2023/01/15 12:23:34;;;;;;;16.67;12.38;;;;;;;19.42;42.38;94823.41;5023832;28;20644;-77